sensor_id;sensor_type;location;lat;lon;timestamp;temperature;humidity
7030;DHT22;3556;53.500;10.176;2022-09-14T00:00:59;13.20;99.90
7030;DHT22;3556;53.500;10.176;2022-09-14T00:03:25;13.10;99.90
7030;DHT22;3556;53.500;10.176;2022-09-14T00:05:51;13.10;99.90
7030;DHT22;3556;53.500;10.176;2022-09-14T00:08:16;13.10;99.90
7030;DHT22;3556;53.500;10.176;2022-09-14T00:10:44;13.00;99.90
7030;DHT22;3556;53.500;10.176;2022-09-14T00:13:12;13.00;99.90
7030;DHT22;3556;53.500;10.176;2022-09-14T00:15:41;13.00;99.90
7030;DHT22;3556;53.500;10.176;2022-09-14T00:18:09;12.90;99.90
7030;DHT22;3556;53.500;10.176;2022-09-14T00:20:35;12.90;99.90
7030;DHT22;3556;53.500;10.176;2022-09-14T00:23:01;12.90;99.90
7030;DHT22;3556;53.500;10.176;2022-09-14T00:25:27;12.90;99.90
7030;DHT22;3556;53.500;10.176;2022-09-14T00:27:53;12.80;99.90
7030;DHT22;3556;53.500;10.176;2022-09-14T00:30:20;12.80;99.90
7030;DHT22;3556;53.500;10.176;2022-09-14T00:32:46;12.80;99.90
7030;DHT22;3556;53.500;10.176;2022-09-14T00:35:12;12.80;99.90
7030;DHT22;3556;53.500;10.176;2022-09-14T00:37:37;12.70;99.90
7030;DHT22;3556;53.500;10.176;2022-09-14T00:40:04;12.70;99.90
7030;DHT22;3556;53.500;10.176;2022-09-14T00:42:31;12.60;99.90
7030;DHT22;3556;53.500;10.176;2022-09-14T00:45:02;12.60;99.90
7030;DHT22;3556;53.500;10.176;2022-09-14T00:47:31;12.60;99.90
7030;DHT22;3556;53.500;10.176;2022-09-14T00:49:59;12.50;99.90
7030;DHT22;3556;53.500;10.176;2022-09-14T00:52:29;12.50;99.90
7030;DHT22;3556;53.500;10.176;2022-09-14T00:55:00;12.50;99.90
7030;DHT22;3556;53.500;10.176;2022-09-14T00:57:29;12.40;99.90
7030;DHT22;3556;53.500;10.176;2022-09-14T00:59:56;12.40;99.90
7030;DHT22;3556;53.500;10.176;2022-09-14T01:02:24;12.40;99.90
7030;DHT22;3556;53.500;10.176;2022-09-14T01:04:51;12.40;99.90
7030;DHT22;3556;53.500;10.176;2022-09-14T01:10:22;12.30;99.90
7030;DHT22;3556;53.500;10.176;2022-09-14T01:18:51;12.20;99.90
7030;DHT22;3556;53.500;10.176;2022-09-14T01:21:29;12.10;99.90
7030;DHT22;3556;53.500;10.176;2022-09-14T01:24:17;12.10;99.90
7030;DHT22;3556;53.500;10.176;2022-09-14T01:32:12;12.00;99.90
7030;DHT22;3556;53.500;10.176;2022-09-14T01:34:46;11.90;99.90
7030;DHT22;3556;53.500;10.176;2022-09-14T01:37:20;11.90;99.90
7030;DHT22;3556;53.500;10.176;2022-09-14T01:40:00;11.80;99.90
7030;DHT22;3556;53.500;10.176;2022-09-14T01:42:28;11.80;99.90
7030;DHT22;3556;53.500;10.176;2022-09-14T01:44:58;11.80;99.90
7030;DHT22;3556;53.500;10.176;2022-09-14T01:47:47;11.80;99.90
7030;DHT22;3556;53.500;10.176;2022-09-14T01:50:21;11.80;99.90
7030;DHT22;3556;53.500;10.176;2022-09-14T01:52:56;11.70;99.90
7030;DHT22;3556;53.500;10.176;2022-09-14T02:00:51;11.60;99.90
7030;DHT22;3556;53.500;10.176;2022-09-14T02:03:22;11.60;99.90
7030;DHT22;3556;53.500;10.176;2022-09-14T02:08:29;11.50;99.90
7030;DHT22;3556;53.500;10.176;2022-09-14T02:10:56;11.50;99.90
7030;DHT22;3556;53.500;10.176;2022-09-14T02:13:23;11.50;99.90
7030;DHT22;3556;53.500;10.176;2022-09-14T02:15:50;11.40;99.90
7030;DHT22;3556;53.500;10.176;2022-09-14T02:18:16;11.40;99.90
7030;DHT22;3556;53.500;10.176;2022-09-14T02:20:57;11.40;99.90
7030;DHT22;3556;53.500;10.176;2022-09-14T02:23:24;11.40;99.90
7030;DHT22;3556;53.500;10.176;2022-09-14T02:25:51;11.40;99.90
7030;DHT22;3556;53.500;10.176;2022-09-14T02:28:17;11.30;99.90
7030;DHT22;3556;53.500;10.176;2022-09-14T02:34:09;11.30;99.90
7030;DHT22;3556;53.500;10.176;2022-09-14T02:39:24;11.30;99.90
7030;DHT22;3556;53.500;10.176;2022-09-14T02:47:42;11.20;99.90
7030;DHT22;3556;53.500;10.176;2022-09-14T02:55:55;11.10;99.90
7030;DHT22;3556;53.500;10.176;2022-09-14T02:58:21;11.10;99.90
7030;DHT22;3556;53.500;10.176;2022-09-14T03:00:48;11.00;99.90
7030;DHT22;3556;53.500;10.176;2022-09-14T03:03:17;11.00;99.90
7030;DHT22;3556;53.500;10.176;2022-09-14T03:05:44;11.00;99.90
7030;DHT22;3556;53.500;10.176;2022-09-14T03:08:10;11.00;99.90
7030;DHT22;3556;53.500;10.176;2022-09-14T03:10:36;11.00;99.90
7030;DHT22;3556;53.500;10.176;2022-09-14T03:13:03;10.90;99.90
7030;DHT22;3556;53.500;10.176;2022-09-14T03:15:29;10.90;99.90
7030;DHT22;3556;53.500;10.176;2022-09-14T03:17:55;10.90;99.90
7030;DHT22;3556;53.500;10.176;2022-09-14T03:20:23;10.90;99.90
7030;DHT22;3556;53.500;10.176;2022-09-14T03:22:49;10.90;99.90
7030;DHT22;3556;53.500;10.176;2022-09-14T03:25:15;10.90;99.90
7030;DHT22;3556;53.500;10.176;2022-09-14T03:27:47;10.90;99.90
7030;DHT22;3556;53.500;10.176;2022-09-14T03:30:13;10.80;99.90
7030;DHT22;3556;53.500;10.176;2022-09-14T03:32:39;10.90;99.90
7030;DHT22;3556;53.500;10.176;2022-09-14T03:35:05;10.80;99.90
7030;DHT22;3556;53.500;10.176;2022-09-14T03:37:31;10.80;99.90
7030;DHT22;3556;53.500;10.176;2022-09-14T03:39:56;10.80;99.90
7030;DHT22;3556;53.500;10.176;2022-09-14T03:42:22;10.80;99.90
7030;DHT22;3556;53.500;10.176;2022-09-14T03:44:48;10.70;99.90
7030;DHT22;3556;53.500;10.176;2022-09-14T03:47:13;10.70;99.90
7030;DHT22;3556;53.500;10.176;2022-09-14T03:49:39;10.70;99.90
7030;DHT22;3556;53.500;10.176;2022-09-14T03:52:05;10.70;99.90
7030;DHT22;3556;53.500;10.176;2022-09-14T03:54:30;10.60;99.90
7030;DHT22;3556;53.500;10.176;2022-09-14T03:56:56;10.60;99.90
7030;DHT22;3556;53.500;10.176;2022-09-14T03:59:22;10.60;99.90
7030;DHT22;3556;53.500;10.176;2022-09-14T04:01:47;10.60;99.90
7030;DHT22;3556;53.500;10.176;2022-09-14T04:04:14;10.60;99.90
7030;DHT22;3556;53.500;10.176;2022-09-14T04:06:40;10.60;99.90
7030;DHT22;3556;53.500;10.176;2022-09-14T04:09:06;10.50;99.90
7030;DHT22;3556;53.500;10.176;2022-09-14T04:11:32;10.50;99.90
7030;DHT22;3556;53.500;10.176;2022-09-14T04:14:03;10.40;99.90
7030;DHT22;3556;53.500;10.176;2022-09-14T04:16:30;10.40;99.90
7030;DHT22;3556;53.500;10.176;2022-09-14T04:18:56;10.40;99.90
7030;DHT22;3556;53.500;10.176;2022-09-14T04:21:23;10.40;99.90
7030;DHT22;3556;53.500;10.176;2022-09-14T04:23:54;10.40;99.90
7030;DHT22;3556;53.500;10.176;2022-09-14T04:26:21;10.40;99.90
7030;DHT22;3556;53.500;10.176;2022-09-14T04:28:47;10.40;99.90
7030;DHT22;3556;53.500;10.176;2022-09-14T04:31:13;10.30;99.90
7030;DHT22;3556;53.500;10.176;2022-09-14T04:33:40;10.30;99.90
7030;DHT22;3556;53.500;10.176;2022-09-14T04:36:09;10.30;99.90
7030;DHT22;3556;53.500;10.176;2022-09-14T04:38:36;10.20;99.90
7030;DHT22;3556;53.500;10.176;2022-09-14T04:41:17;10.30;99.90
7030;DHT22;3556;53.500;10.176;2022-09-14T04:43:44;10.20;99.90
7030;DHT22;3556;53.500;10.176;2022-09-14T04:46:12;10.20;99.90
7030;DHT22;3556;53.500;10.176;2022-09-14T04:48:38;10.20;99.90
7030;DHT22;3556;53.500;10.176;2022-09-14T04:51:12;10.20;99.90
7030;DHT22;3556;53.500;10.176;2022-09-14T04:53:41;10.20;99.90
7030;DHT22;3556;53.500;10.176;2022-09-14T04:56:09;10.30;99.90
7030;DHT22;3556;53.500;10.176;2022-09-14T04:58:37;10.30;99.90
7030;DHT22;3556;53.500;10.176;2022-09-14T05:01:08;10.40;99.90
7030;DHT22;3556;53.500;10.176;2022-09-14T05:03:35;10.50;99.90
7030;DHT22;3556;53.500;10.176;2022-09-14T05:06:05;10.50;99.90
7030;DHT22;3556;53.500;10.176;2022-09-14T05:08:32;10.60;99.90
7030;DHT22;3556;53.500;10.176;2022-09-14T05:10:58;10.70;99.90
7030;DHT22;3556;53.500;10.176;2022-09-14T05:13:24;10.70;99.90
7030;DHT22;3556;53.500;10.176;2022-09-14T05:15:50;10.80;99.90
7030;DHT22;3556;53.500;10.176;2022-09-14T05:18:17;10.90;99.90
7030;DHT22;3556;53.500;10.176;2022-09-14T05:20:42;10.90;99.90
7030;DHT22;3556;53.500;10.176;2022-09-14T05:23:08;11.00;99.90
7030;DHT22;3556;53.500;10.176;2022-09-14T05:25:34;11.00;99.90
7030;DHT22;3556;53.500;10.176;2022-09-14T05:27:59;11.10;99.90
7030;DHT22;3556;53.500;10.176;2022-09-14T05:30:25;11.10;99.90
7030;DHT22;3556;53.500;10.176;2022-09-14T05:32:51;11.20;99.90
7030;DHT22;3556;53.500;10.176;2022-09-14T05:35:16;11.20;99.90
7030;DHT22;3556;53.500;10.176;2022-09-14T05:37:42;11.30;99.90
7030;DHT22;3556;53.500;10.176;2022-09-14T05:40:08;11.30;99.90
7030;DHT22;3556;53.500;10.176;2022-09-14T05:42:34;11.30;99.90
7030;DHT22;3556;53.500;10.176;2022-09-14T05:45:00;11.40;99.90
7030;DHT22;3556;53.500;10.176;2022-09-14T05:47:29;11.40;99.90
7030;DHT22;3556;53.500;10.176;2022-09-14T05:49:55;11.40;99.90
7030;DHT22;3556;53.500;10.176;2022-09-14T05:52:21;11.50;99.90
7030;DHT22;3556;53.500;10.176;2022-09-14T05:54:46;11.60;99.90
7030;DHT22;3556;53.500;10.176;2022-09-14T05:57:12;11.60;99.90
7030;DHT22;3556;53.500;10.176;2022-09-14T05:59:37;11.70;99.90
7030;DHT22;3556;53.500;10.176;2022-09-14T06:02:03;11.70;99.90
7030;DHT22;3556;53.500;10.176;2022-09-14T06:04:29;11.80;99.90
7030;DHT22;3556;53.500;10.176;2022-09-14T06:06:55;11.90;99.90
7030;DHT22;3556;53.500;10.176;2022-09-14T06:09:20;12.00;99.90
7030;DHT22;3556;53.500;10.176;2022-09-14T06:11:46;12.00;99.90
7030;DHT22;3556;53.500;10.176;2022-09-14T06:14:12;12.10;99.90
7030;DHT22;3556;53.500;10.176;2022-09-14T06:16:37;12.10;99.90
7030;DHT22;3556;53.500;10.176;2022-09-14T06:19:03;12.20;99.90
7030;DHT22;3556;53.500;10.176;2022-09-14T06:21:31;12.20;99.90
7030;DHT22;3556;53.500;10.176;2022-09-14T06:23:58;12.30;99.90
7030;DHT22;3556;53.500;10.176;2022-09-14T06:26:24;12.40;99.90
7030;DHT22;3556;53.500;10.176;2022-09-14T06:28:50;12.40;99.90
7030;DHT22;3556;53.500;10.176;2022-09-14T06:31:17;12.50;99.90
7030;DHT22;3556;53.500;10.176;2022-09-14T06:33:47;12.60;99.90
7030;DHT22;3556;53.500;10.176;2022-09-14T06:36:15;12.60;99.90
7030;DHT22;3556;53.500;10.176;2022-09-14T06:38:42;12.70;99.90
7030;DHT22;3556;53.500;10.176;2022-09-14T06:41:11;12.80;99.90
7030;DHT22;3556;53.500;10.176;2022-09-14T06:43:38;12.90;99.90
7030;DHT22;3556;53.500;10.176;2022-09-14T06:46:16;12.90;99.90
7030;DHT22;3556;53.500;10.176;2022-09-14T06:48:46;13.00;99.90
7030;DHT22;3556;53.500;10.176;2022-09-14T06:51:16;13.10;99.90
7030;DHT22;3556;53.500;10.176;2022-09-14T06:53:43;13.20;99.90
7030;DHT22;3556;53.500;10.176;2022-09-14T06:56:09;13.30;99.90
7030;DHT22;3556;53.500;10.176;2022-09-14T06:58:35;13.40;99.90
7030;DHT22;3556;53.500;10.176;2022-09-14T07:01:06;13.50;99.90
7030;DHT22;3556;53.500;10.176;2022-09-14T07:03:34;13.60;99.90
7030;DHT22;3556;53.500;10.176;2022-09-14T07:06:08;13.70;99.90
7030;DHT22;3556;53.500;10.176;2022-09-14T07:08:35;13.80;99.90
7030;DHT22;3556;53.500;10.176;2022-09-14T07:11:02;13.90;99.90
7030;DHT22;3556;53.500;10.176;2022-09-14T07:13:28;14.00;99.90
7030;DHT22;3556;53.500;10.176;2022-09-14T07:15:54;14.00;99.90
7030;DHT22;3556;53.500;10.176;2022-09-14T07:18:20;14.10;99.90
7030;DHT22;3556;53.500;10.176;2022-09-14T07:20:47;14.20;99.90
7030;DHT22;3556;53.500;10.176;2022-09-14T07:23:13;14.20;99.90
7030;DHT22;3556;53.500;10.176;2022-09-14T07:25:39;14.30;99.90
7030;DHT22;3556;53.500;10.176;2022-09-14T07:28:05;14.30;99.90
7030;DHT22;3556;53.500;10.176;2022-09-14T07:30:34;14.40;99.90
7030;DHT22;3556;53.500;10.176;2022-09-14T07:33:00;14.50;99.90
7030;DHT22;3556;53.500;10.176;2022-09-14T07:35:25;14.60;99.90
7030;DHT22;3556;53.500;10.176;2022-09-14T07:37:52;14.70;99.90
7030;DHT22;3556;53.500;10.176;2022-09-14T07:40:18;14.70;99.90
7030;DHT22;3556;53.500;10.176;2022-09-14T07:42:49;14.80;99.90
7030;DHT22;3556;53.500;10.176;2022-09-14T07:45:15;14.80;99.90
7030;DHT22;3556;53.500;10.176;2022-09-14T07:47:41;14.90;99.90
7030;DHT22;3556;53.500;10.176;2022-09-14T07:50:07;14.90;99.90
7030;DHT22;3556;53.500;10.176;2022-09-14T07:52:32;15.00;99.90
7030;DHT22;3556;53.500;10.176;2022-09-14T07:54:59;15.10;99.90
7030;DHT22;3556;53.500;10.176;2022-09-14T07:57:24;15.20;99.90
7030;DHT22;3556;53.500;10.176;2022-09-14T07:59:50;15.20;99.90
7030;DHT22;3556;53.500;10.176;2022-09-14T08:02:16;15.30;99.90
7030;DHT22;3556;53.500;10.176;2022-09-14T08:04:41;15.40;99.90
7030;DHT22;3556;53.500;10.176;2022-09-14T08:07:07;15.50;99.90
7030;DHT22;3556;53.500;10.176;2022-09-14T08:09:33;15.60;99.90
7030;DHT22;3556;53.500;10.176;2022-09-14T08:11:59;15.70;99.90
7030;DHT22;3556;53.500;10.176;2022-09-14T08:14:25;15.80;99.90
7030;DHT22;3556;53.500;10.176;2022-09-14T08:16:51;15.90;99.90
7030;DHT22;3556;53.500;10.176;2022-09-14T08:19:17;15.90;99.90
7030;DHT22;3556;53.500;10.176;2022-09-14T08:21:46;16.00;99.90
7030;DHT22;3556;53.500;10.176;2022-09-14T08:24:13;16.10;99.90
7030;DHT22;3556;53.500;10.176;2022-09-14T08:26:40;16.20;99.90
7030;DHT22;3556;53.500;10.176;2022-09-14T08:29:05;16.30;99.90
7030;DHT22;3556;53.500;10.176;2022-09-14T08:31:35;16.50;99.90
7030;DHT22;3556;53.500;10.176;2022-09-14T08:34:03;16.70;99.90
7030;DHT22;3556;53.500;10.176;2022-09-14T08:36:31;16.90;99.90
7030;DHT22;3556;53.500;10.176;2022-09-14T08:38:57;17.10;99.90
7030;DHT22;3556;53.500;10.176;2022-09-14T08:41:38;17.20;99.90
7030;DHT22;3556;53.500;10.176;2022-09-14T08:47:18;17.30;99.90
7030;DHT22;3556;53.500;10.176;2022-09-14T08:50:03;17.30;99.90
7030;DHT22;3556;53.500;10.176;2022-09-14T08:52:37;17.30;99.90
7030;DHT22;3556;53.500;10.176;2022-09-14T09:00:24;17.30;99.90
7030;DHT22;3556;53.500;10.176;2022-09-14T09:05:45;17.50;99.90
7030;DHT22;3556;53.500;10.176;2022-09-14T09:08:36;17.60;99.90
7030;DHT22;3556;53.500;10.176;2022-09-14T09:11:04;17.60;99.90
7030;DHT22;3556;53.500;10.176;2022-09-14T09:13:36;17.70;99.90
7030;DHT22;3556;53.500;10.176;2022-09-14T09:16:06;17.70;99.90
7030;DHT22;3556;53.500;10.176;2022-09-14T09:18:49;17.70;99.90
7030;DHT22;3556;53.500;10.176;2022-09-14T09:21:18;17.70;99.90
7030;DHT22;3556;53.500;10.176;2022-09-14T09:23:45;17.80;99.90
7030;DHT22;3556;53.500;10.176;2022-09-14T09:26:31;17.80;99.90
7030;DHT22;3556;53.500;10.176;2022-09-14T09:28:59;18.00;99.90
7030;DHT22;3556;53.500;10.176;2022-09-14T09:34:02;18.40;99.90
7030;DHT22;3556;53.500;10.176;2022-09-14T09:36:37;18.50;99.90
7030;DHT22;3556;53.500;10.176;2022-09-14T09:39:03;18.70;99.90
7030;DHT22;3556;53.500;10.176;2022-09-14T09:41:35;18.80;99.90
7030;DHT22;3556;53.500;10.176;2022-09-14T09:44:08;18.90;99.90
7030;DHT22;3556;53.500;10.176;2022-09-14T09:46:37;19.00;99.90
7030;DHT22;3556;53.500;10.176;2022-09-14T09:49:33;19.10;99.90
7030;DHT22;3556;53.500;10.176;2022-09-14T09:52:26;19.20;99.90
7030;DHT22;3556;53.500;10.176;2022-09-14T09:54:53;19.10;99.90
7030;DHT22;3556;53.500;10.176;2022-09-14T09:57:34;18.90;99.90
7030;DHT22;3556;53.500;10.176;2022-09-14T10:02:47;18.80;99.90
7030;DHT22;3556;53.500;10.176;2022-09-14T10:08:00;18.70;99.90
7030;DHT22;3556;53.500;10.176;2022-09-14T10:13:05;18.70;99.90
7030;DHT22;3556;53.500;10.176;2022-09-14T10:15:40;18.80;99.90
7030;DHT22;3556;53.500;10.176;2022-09-14T10:25:46;19.20;99.90
7030;DHT22;3556;53.500;10.176;2022-09-14T10:33:37;19.80;99.90
7030;DHT22;3556;53.500;10.176;2022-09-14T10:38:48;19.80;99.90
7030;DHT22;3556;53.500;10.176;2022-09-14T10:41:36;19.80;99.90
7030;DHT22;3556;53.500;10.176;2022-09-14T10:44:36;19.80;99.90
7030;DHT22;3556;53.500;10.176;2022-09-14T10:52:35;19.50;99.90
7030;DHT22;3556;53.500;10.176;2022-09-14T10:55:24;19.40;99.90
7030;DHT22;3556;53.500;10.176;2022-09-14T11:29:36;18.50;99.90
7030;DHT22;3556;53.500;10.176;2022-09-14T11:32:21;18.60;99.90
7030;DHT22;3556;53.500;10.176;2022-09-14T11:35:25;18.60;99.90
7030;DHT22;3556;53.500;10.176;2022-09-14T11:38:05;18.80;99.90
7030;DHT22;3556;53.500;10.176;2022-09-14T11:40:41;19.00;99.90
7030;DHT22;3556;53.500;10.176;2022-09-14T11:43:29;19.20;99.90
7030;DHT22;3556;53.500;10.176;2022-09-14T11:46:11;19.30;99.90
7030;DHT22;3556;53.500;10.176;2022-09-14T11:48:49;19.30;99.90
7030;DHT22;3556;53.500;10.176;2022-09-14T11:51:21;19.30;99.90
7030;DHT22;3556;53.500;10.176;2022-09-14T11:53:48;19.20;99.90
7030;DHT22;3556;53.500;10.176;2022-09-14T11:56:23;19.10;99.90
7030;DHT22;3556;53.500;10.176;2022-09-14T11:58:52;19.00;99.90
7030;DHT22;3556;53.500;10.176;2022-09-14T12:01:38;18.90;99.90
7030;DHT22;3556;53.500;10.176;2022-09-14T12:12:22;18.40;99.90
7030;DHT22;3556;53.500;10.176;2022-09-14T12:14:35;18.30;99.90
7030;DHT22;3556;53.500;10.176;2022-09-14T12:17:22;18.30;99.90
7030;DHT22;3556;53.500;10.176;2022-09-14T12:19:50;18.20;99.90
7030;DHT22;3556;53.500;10.176;2022-09-14T12:25:02;18.10;99.90
7030;DHT22;3556;53.500;10.176;2022-09-14T12:27:30;18.10;99.90
7030;DHT22;3556;53.500;10.176;2022-09-14T12:29:57;18.00;99.90
7030;DHT22;3556;53.500;10.176;2022-09-14T12:32:27;17.90;99.90
7030;DHT22;3556;53.500;10.176;2022-09-14T12:38:36;17.80;99.90
7030;DHT22;3556;53.500;10.176;2022-09-14T12:40:45;17.70;99.90
7030;DHT22;3556;53.500;10.176;2022-09-14T12:48:52;17.70;99.90
7030;DHT22;3556;53.500;10.176;2022-09-14T12:56:39;18.00;99.90
7030;DHT22;3556;53.500;10.176;2022-09-14T13:04:39;18.60;99.90
7030;DHT22;3556;53.500;10.176;2022-09-14T13:07:13;18.90;99.90
7030;DHT22;3556;53.500;10.176;2022-09-14T13:09:52;19.50;99.90
7030;DHT22;3556;53.500;10.176;2022-09-14T13:12:26;20.40;99.90
7030;DHT22;3556;53.500;10.176;2022-09-14T13:15:06;21.00;99.90
7030;DHT22;3556;53.500;10.176;2022-09-14T13:17:32;21.20;99.90
7030;DHT22;3556;53.500;10.176;2022-09-14T13:20:03;21.10;99.90
7030;DHT22;3556;53.500;10.176;2022-09-14T13:22:32;20.90;99.90
7030;DHT22;3556;53.500;10.176;2022-09-14T13:24:59;20.70;99.90
7030;DHT22;3556;53.500;10.176;2022-09-14T13:27:28;20.50;99.90
7030;DHT22;3556;53.500;10.176;2022-09-14T13:30:21;20.40;99.90
7030;DHT22;3556;53.500;10.176;2022-09-14T13:32:52;20.30;99.90
7030;DHT22;3556;53.500;10.176;2022-09-14T13:35:29;20.20;99.90
7030;DHT22;3556;53.500;10.176;2022-09-14T13:37:57;20.10;99.90
7030;DHT22;3556;53.500;10.176;2022-09-14T13:40:25;19.90;99.90
7030;DHT22;3556;53.500;10.176;2022-09-14T13:42:53;19.80;99.90
7030;DHT22;3556;53.500;10.176;2022-09-14T13:45:20;19.80;99.90
7030;DHT22;3556;53.500;10.176;2022-09-14T13:47:46;19.70;99.90
7030;DHT22;3556;53.500;10.176;2022-09-14T13:50:13;19.60;99.90
7030;DHT22;3556;53.500;10.176;2022-09-14T13:52:40;19.50;99.90
7030;DHT22;3556;53.500;10.176;2022-09-14T13:55:39;19.30;99.90
7030;DHT22;3556;53.500;10.176;2022-09-14T13:58:13;19.20;99.90
7030;DHT22;3556;53.500;10.176;2022-09-14T14:01:01;19.10;99.90
7030;DHT22;3556;53.500;10.176;2022-09-14T14:06:27;18.90;99.90
7030;DHT22;3556;53.500;10.176;2022-09-14T14:09:03;18.80;99.90
7030;DHT22;3556;53.500;10.176;2022-09-14T14:11:52;18.70;99.90
7030;DHT22;3556;53.500;10.176;2022-09-14T14:14:21;18.60;99.90
7030;DHT22;3556;53.500;10.176;2022-09-14T14:19:49;18.50;99.90
7030;DHT22;3556;53.500;10.176;2022-09-14T14:22:19;18.40;99.90
7030;DHT22;3556;53.500;10.176;2022-09-14T14:24:47;18.30;99.90
7030;DHT22;3556;53.500;10.176;2022-09-14T14:27:43;18.20;99.90
7030;DHT22;3556;53.500;10.176;2022-09-14T14:30:15;18.10;99.90
7030;DHT22;3556;53.500;10.176;2022-09-14T14:32:41;18.10;99.90
7030;DHT22;3556;53.500;10.176;2022-09-14T14:35:15;18.00;99.90
7030;DHT22;3556;53.500;10.176;2022-09-14T14:37:41;18.00;99.90
7030;DHT22;3556;53.500;10.176;2022-09-14T14:40:07;18.00;99.90
7030;DHT22;3556;53.500;10.176;2022-09-14T14:42:35;18.00;99.90
7030;DHT22;3556;53.500;10.176;2022-09-14T14:45:00;18.00;99.90
7030;DHT22;3556;53.500;10.176;2022-09-14T14:47:26;18.00;99.90
7030;DHT22;3556;53.500;10.176;2022-09-14T14:49:52;18.00;99.90
7030;DHT22;3556;53.500;10.176;2022-09-14T14:52:18;18.00;99.90
7030;DHT22;3556;53.500;10.176;2022-09-14T14:54:44;18.00;99.90
7030;DHT22;3556;53.500;10.176;2022-09-14T14:57:09;18.00;99.90
7030;DHT22;3556;53.500;10.176;2022-09-14T14:59:35;18.00;99.90
7030;DHT22;3556;53.500;10.176;2022-09-14T15:02:00;18.00;99.90
7030;DHT22;3556;53.500;10.176;2022-09-14T15:04:26;18.00;99.90
7030;DHT22;3556;53.500;10.176;2022-09-14T15:06:52;18.00;99.90
7030;DHT22;3556;53.500;10.176;2022-09-14T15:09:22;18.00;99.90
7030;DHT22;3556;53.500;10.176;2022-09-14T15:11:49;18.00;99.90
7030;DHT22;3556;53.500;10.176;2022-09-14T15:14:17;18.10;99.90
7030;DHT22;3556;53.500;10.176;2022-09-14T15:16:44;18.10;99.90
7030;DHT22;3556;53.500;10.176;2022-09-14T15:19:10;18.20;99.90
7030;DHT22;3556;53.500;10.176;2022-09-14T15:21:37;18.20;99.90
7030;DHT22;3556;53.500;10.176;2022-09-14T15:24:03;18.20;99.90
7030;DHT22;3556;53.500;10.176;2022-09-14T15:26:29;18.20;99.90
7030;DHT22;3556;53.500;10.176;2022-09-14T15:28:55;18.20;99.90
7030;DHT22;3556;53.500;10.176;2022-09-14T15:31:20;18.20;99.90
7030;DHT22;3556;53.500;10.176;2022-09-14T15:33:47;18.20;99.90
7030;DHT22;3556;53.500;10.176;2022-09-14T15:36:15;18.20;99.90
7030;DHT22;3556;53.500;10.176;2022-09-14T15:38:58;18.20;99.90
7030;DHT22;3556;53.500;10.176;2022-09-14T15:41:24;18.20;99.90
7030;DHT22;3556;53.500;10.176;2022-09-14T15:43:49;18.20;99.90
7030;DHT22;3556;53.500;10.176;2022-09-14T15:46:15;18.30;99.90
7030;DHT22;3556;53.500;10.176;2022-09-14T15:48:40;18.40;99.90
7030;DHT22;3556;53.500;10.176;2022-09-14T15:51:09;18.40;99.90
7030;DHT22;3556;53.500;10.176;2022-09-14T15:53:36;18.40;99.90
7030;DHT22;3556;53.500;10.176;2022-09-14T15:56:09;18.40;99.90
7030;DHT22;3556;53.500;10.176;2022-09-14T15:58:35;18.40;99.90
7030;DHT22;3556;53.500;10.176;2022-09-14T16:01:09;18.30;99.90
7030;DHT22;3556;53.500;10.176;2022-09-14T16:03:35;18.30;99.90
7030;DHT22;3556;53.500;10.176;2022-09-14T16:06:01;18.20;99.90
7030;DHT22;3556;53.500;10.176;2022-09-14T16:08:27;18.20;99.90
7030;DHT22;3556;53.500;10.176;2022-09-14T16:10:57;18.10;99.90
7030;DHT22;3556;53.500;10.176;2022-09-14T16:13:23;18.10;99.90
7030;DHT22;3556;53.500;10.176;2022-09-14T16:15:49;18.10;99.90
7030;DHT22;3556;53.500;10.176;2022-09-14T16:18:14;18.00;99.90
7030;DHT22;3556;53.500;10.176;2022-09-14T16:20:40;18.00;99.90
7030;DHT22;3556;53.500;10.176;2022-09-14T16:23:06;17.90;99.90
7030;DHT22;3556;53.500;10.176;2022-09-14T16:25:36;17.90;99.90
7030;DHT22;3556;53.500;10.176;2022-09-14T16:28:06;17.80;99.90
7030;DHT22;3556;53.500;10.176;2022-09-14T16:30:32;17.80;99.90
7030;DHT22;3556;53.500;10.176;2022-09-14T16:32:57;17.70;99.90
7030;DHT22;3556;53.500;10.176;2022-09-14T16:35:24;17.70;99.90
7030;DHT22;3556;53.500;10.176;2022-09-14T16:37:50;17.70;99.90
7030;DHT22;3556;53.500;10.176;2022-09-14T16:40:16;17.60;99.90
7030;DHT22;3556;53.500;10.176;2022-09-14T16:42:42;17.50;99.90
7030;DHT22;3556;53.500;10.176;2022-09-14T16:45:08;17.50;99.90
7030;DHT22;3556;53.500;10.176;2022-09-14T16:47:33;17.50;99.90
7030;DHT22;3556;53.500;10.176;2022-09-14T16:49:59;17.50;99.90
7030;DHT22;3556;53.500;10.176;2022-09-14T16:52:25;17.40;99.90
7030;DHT22;3556;53.500;10.176;2022-09-14T16:54:50;17.40;99.90
7030;DHT22;3556;53.500;10.176;2022-09-14T16:57:16;17.40;99.90
7030;DHT22;3556;53.500;10.176;2022-09-14T16:59:41;17.30;99.90
7030;DHT22;3556;53.500;10.176;2022-09-14T17:02:09;17.30;99.90
7030;DHT22;3556;53.500;10.176;2022-09-14T17:04:36;17.30;99.90
7030;DHT22;3556;53.500;10.176;2022-09-14T17:07:01;17.20;99.90
7030;DHT22;3556;53.500;10.176;2022-09-14T17:09:28;17.20;99.90
7030;DHT22;3556;53.500;10.176;2022-09-14T17:11:55;17.10;99.90
7030;DHT22;3556;53.500;10.176;2022-09-14T17:14:28;17.10;99.90
7030;DHT22;3556;53.500;10.176;2022-09-14T17:16:54;17.10;99.90
7030;DHT22;3556;53.500;10.176;2022-09-14T17:19:20;17.00;99.90
7030;DHT22;3556;53.500;10.176;2022-09-14T17:21:46;16.90;99.90
7030;DHT22;3556;53.500;10.176;2022-09-14T17:24:14;16.90;99.90
7030;DHT22;3556;53.500;10.176;2022-09-14T17:26:41;16.80;99.90
7030;DHT22;3556;53.500;10.176;2022-09-14T17:29:07;16.70;99.90
7030;DHT22;3556;53.500;10.176;2022-09-14T17:31:35;16.70;99.90
7030;DHT22;3556;53.500;10.176;2022-09-14T17:34:04;16.60;99.90
7030;DHT22;3556;53.500;10.176;2022-09-14T17:36:30;16.50;99.90
7030;DHT22;3556;53.500;10.176;2022-09-14T17:38:57;16.40;99.90
7030;DHT22;3556;53.500;10.176;2022-09-14T17:41:24;16.30;99.90
7030;DHT22;3556;53.500;10.176;2022-09-14T17:43:54;16.30;99.90
7030;DHT22;3556;53.500;10.176;2022-09-14T17:46:21;16.20;99.90
7030;DHT22;3556;53.500;10.176;2022-09-14T17:48:47;16.10;99.90
7030;DHT22;3556;53.500;10.176;2022-09-14T17:51:24;16.10;99.90
7030;DHT22;3556;53.500;10.176;2022-09-14T17:53:52;16.10;99.90
7030;DHT22;3556;53.500;10.176;2022-09-14T17:56:20;15.90;99.90
7030;DHT22;3556;53.500;10.176;2022-09-14T17:58:47;15.90;99.90
7030;DHT22;3556;53.500;10.176;2022-09-14T18:01:16;15.80;99.90
7030;DHT22;3556;53.500;10.176;2022-09-14T18:03:43;15.70;99.90
7030;DHT22;3556;53.500;10.176;2022-09-14T18:06:13;15.70;99.90
7030;DHT22;3556;53.500;10.176;2022-09-14T18:08:39;15.70;99.90
7030;DHT22;3556;53.500;10.176;2022-09-14T18:11:06;15.60;99.90
7030;DHT22;3556;53.500;10.176;2022-09-14T18:13:32;15.60;99.90
7030;DHT22;3556;53.500;10.176;2022-09-14T18:15:59;15.50;99.90
7030;DHT22;3556;53.500;10.176;2022-09-14T18:18:25;15.50;99.90
7030;DHT22;3556;53.500;10.176;2022-09-14T18:20:50;15.40;99.90
7030;DHT22;3556;53.500;10.176;2022-09-14T18:23:17;15.40;99.90
7030;DHT22;3556;53.500;10.176;2022-09-14T18:25:42;15.30;99.90
7030;DHT22;3556;53.500;10.176;2022-09-14T18:28:08;15.30;99.90